Millingport, North Carolina
Current Conditions -  °F | °C
As of 5:15 PM on Sunday 21 Dec 2014 (Local Time) from KVUJ Reporting Station
Overcast Overcast  
Wind Chill: 45°   Ceiling: 4000
Heat Index: 47°   Visibility: 10mi
Dew Point: 38°   Wind: 6mph
Humidity: 71%   Direction: 70°ENE
Pressure: 30.25"   Gusts: NA
Location:  35.3503°N, 80.2174°W
Report Text: KVUJ 212215Z AUTO 07005KT 10SM OVC040 09/04 A3025 RMK AO2 T00850036
Loading
Personal Weather Stations






























Interactive Weather Map New forecast layout! Learn more

10-Day Weather Forecast

Advertisements
Track Severe Weather on mobile